sensor_id;sensor_type;location;lat;lon;timestamp;P1;durP1;ratioP1;P2;durP2;ratioP2
22388;SDS011;11362;48.102;11.620;2022-11-03T00:01:44;4.10;;;2.37;;
22388;SDS011;11362;48.102;11.620;2022-11-03T00:04:11;4.47;;;2.70;;
22388;SDS011;11362;48.102;11.620;2022-11-03T00:06:38;5.73;;;2.83;;
22388;SDS011;11362;48.102;11.620;2022-11-03T00:09:05;8.97;;;2.87;;
22388;SDS011;11362;48.102;11.620;2022-11-03T00:11:34;7.13;;;2.60;;
22388;SDS011;11362;48.102;11.620;2022-11-03T00:14:01;4.50;;;2.67;;
22388;SDS011;11362;48.102;11.620;2022-11-03T00:16:26;3.10;;;2.37;;
22388;SDS011;11362;48.102;11.620;2022-11-03T00:18:52;5.30;;;2.43;;
22388;SDS011;11362;48.102;11.620;2022-11-03T00:21:17;5.90;;;2.50;;
22388;SDS011;11362;48.102;11.620;2022-11-03T00:23:43;5.50;;;2.13;;
22388;SDS011;11362;48.102;11.620;2022-11-03T00:28:42;3.63;;;2.30;;
22388;SDS011;11362;48.102;11.620;2022-11-03T00:31:10;4.60;;;2.47;;
22388;SDS011;11362;48.102;11.620;2022-11-03T00:33:37;4.83;;;2.40;;
22388;SDS011;11362;48.102;11.620;2022-11-03T00:36:03;3.80;;;2.40;;
22388;SDS011;11362;48.102;11.620;2022-11-03T00:38:30;2.50;;;2.00;;
22388;SDS011;11362;48.102;11.620;2022-11-03T00:40:56;5.37;;;2.27;;
22388;SDS011;11362;48.102;11.620;2022-11-03T00:43:23;3.70;;;2.53;;
22388;SDS011;11362;48.102;11.620;2022-11-03T00:45:49;7.07;;;2.37;;
22388;SDS011;11362;48.102;11.620;2022-11-03T00:48:14;2.93;;;2.20;;
22388;SDS011;11362;48.102;11.620;2022-11-03T00:50:40;3.30;;;2.23;;
22388;SDS011;11362;48.102;11.620;2022-11-03T00:53:05;3.30;;;2.20;;
22388;SDS011;11362;48.102;11.620;2022-11-03T00:55:30;2.57;;;2.00;;
22388;SDS011;11362;48.102;11.620;2022-11-03T00:57:56;3.30;;;1.93;;
22388;SDS011;11362;48.102;11.620;2022-11-03T01:00:21;4.53;;;2.10;;
22388;SDS011;11362;48.102;11.620;2022-11-03T01:02:46;3.33;;;1.90;;
22388;SDS011;11362;48.102;11.620;2022-11-03T01:05:11;2.93;;;2.03;;
22388;SDS011;11362;48.102;11.620;2022-11-03T01:07:37;5.27;;;2.30;;
22388;SDS011;11362;48.102;11.620;2022-11-03T01:10:02;4.60;;;2.17;;
22388;SDS011;11362;48.102;11.620;2022-11-03T01:12:27;2.80;;;2.50;;
22388;SDS011;11362;48.102;11.620;2022-11-03T01:14:53;2.80;;;2.43;;
22388;SDS011;11362;48.102;11.620;2022-11-03T01:17:27;4.30;;;1.90;;
22388;SDS011;11362;48.102;11.620;2022-11-03T01:19:52;5.47;;;2.20;;
22388;SDS011;11362;48.102;11.620;2022-11-03T01:22:18;3.60;;;2.20;;
22388;SDS011;11362;48.102;11.620;2022-11-03T01:24:44;4.53;;;1.80;;
22388;SDS011;11362;48.102;11.620;2022-11-03T01:27:12;3.47;;;1.83;;
22388;SDS011;11362;48.102;11.620;2022-11-03T01:29:41;3.77;;;2.20;;
22388;SDS011;11362;48.102;11.620;2022-11-03T01:32:07;2.17;;;1.83;;
22388;SDS011;11362;48.102;11.620;2022-11-03T01:34:33;4.53;;;1.90;;
22388;SDS011;11362;48.102;11.620;2022-11-03T01:36:58;2.73;;;2.10;;
22388;SDS011;11362;48.102;11.620;2022-11-03T01:39:23;1.77;;;1.57;;
22388;SDS011;11362;48.102;11.620;2022-11-03T01:41:50;4.20;;;1.90;;
22388;SDS011;11362;48.102;11.620;2022-11-03T01:49:23;2.43;;;1.90;;
22388;SDS011;11362;48.102;11.620;2022-11-03T01:51:57;2.27;;;2.00;;
22388;SDS011;11362;48.102;11.620;2022-11-03T01:54:44;3.10;;;1.80;;
22388;SDS011;11362;48.102;11.620;2022-11-03T01:57:14;2.73;;;1.60;;
22388;SDS011;11362;48.102;11.620;2022-11-03T01:59:43;2.80;;;1.90;;
22388;SDS011;11362;48.102;11.620;2022-11-03T02:02:11;3.20;;;1.87;;
22388;SDS011;11362;48.102;11.620;2022-11-03T02:04:37;2.87;;;1.67;;
22388;SDS011;11362;48.102;11.620;2022-11-03T02:09:48;2.53;;;1.67;;
22388;SDS011;11362;48.102;11.620;2022-11-03T02:12:13;2.40;;;1.70;;
22388;SDS011;11362;48.102;11.620;2022-11-03T02:14:47;4.23;;;1.77;;
22388;SDS011;11362;48.102;11.620;2022-11-03T02:17:16;1.80;;;1.70;;
22388;SDS011;11362;48.102;11.620;2022-11-03T02:19:53;2.53;;;1.60;;
22388;SDS011;11362;48.102;11.620;2022-11-03T02:25:56;2.13;;;1.73;;
22388;SDS011;11362;48.102;11.620;2022-11-03T02:28:09;4.53;;;1.80;;
22388;SDS011;11362;48.102;11.620;2022-11-03T02:30:37;2.87;;;1.60;;
22388;SDS011;11362;48.102;11.620;2022-11-03T02:33:14;1.87;;;1.63;;
22388;SDS011;11362;48.102;11.620;2022-11-03T02:35:54;2.60;;;1.73;;
22388;SDS011;11362;48.102;11.620;2022-11-03T02:38:25;2.10;;;1.90;;
22388;SDS011;11362;48.102;11.620;2022-11-03T02:40:54;1.60;;;1.50;;
22388;SDS011;11362;48.102;11.620;2022-11-03T02:43:24;2.00;;;1.63;;
22388;SDS011;11362;48.102;11.620;2022-11-03T02:45:50;2.20;;;2.00;;
22388;SDS011;11362;48.102;11.620;2022-11-03T02:48:17;2.00;;;1.30;;
22388;SDS011;11362;48.102;11.620;2022-11-03T02:50:43;2.23;;;1.67;;
22388;SDS011;11362;48.102;11.620;2022-11-03T02:53:12;1.60;;;1.50;;
22388;SDS011;11362;48.102;11.620;2022-11-03T03:03:47;2.20;;;1.70;;
22388;SDS011;11362;48.102;11.620;2022-11-03T03:06:27;2.17;;;1.50;;
22388;SDS011;11362;48.102;11.620;2022-11-03T03:09:00;2.20;;;1.67;;
22388;SDS011;11362;48.102;11.620;2022-11-03T03:11:31;1.93;;;1.57;;
22388;SDS011;11362;48.102;11.620;2022-11-03T03:13:58;2.73;;;1.60;;
22388;SDS011;11362;48.102;11.620;2022-11-03T03:16:24;2.30;;;1.50;;
22388;SDS011;11362;48.102;11.620;2022-11-03T03:21:42;1.57;;;1.40;;
22388;SDS011;11362;48.102;11.620;2022-11-03T03:24:18;4.97;;;1.70;;
22388;SDS011;11362;48.102;11.620;2022-11-03T03:26:51;1.90;;;1.80;;
22388;SDS011;11362;48.102;11.620;2022-11-03T03:29:53;1.73;;;1.40;;
22388;SDS011;11362;48.102;11.620;2022-11-03T03:32:14;1.33;;;1.23;;
22388;SDS011;11362;48.102;11.620;2022-11-03T03:34:43;1.23;;;1.17;;
22388;SDS011;11362;48.102;11.620;2022-11-03T03:37:11;1.70;;;1.37;;
22388;SDS011;11362;48.102;11.620;2022-11-03T03:39:40;1.63;;;1.53;;
22388;SDS011;11362;48.102;11.620;2022-11-03T03:42:11;1.50;;;1.40;;
22388;SDS011;11362;48.102;11.620;2022-11-03T03:44:39;1.63;;;1.53;;
22388;SDS011;11362;48.102;11.620;2022-11-03T03:47:08;1.93;;;1.60;;
22388;SDS011;11362;48.102;11.620;2022-11-03T03:49:38;1.40;;;1.30;;
22388;SDS011;11362;48.102;11.620;2022-11-03T03:52:04;1.50;;;1.40;;
22388;SDS011;11362;48.102;11.620;2022-11-03T03:54:30;1.67;;;1.37;;
22388;SDS011;11362;48.102;11.620;2022-11-03T03:56:59;1.47;;;1.33;;
22388;SDS011;11362;48.102;11.620;2022-11-03T03:59:25;1.40;;;1.30;;
22388;SDS011;11362;48.102;11.620;2022-11-03T04:01:51;2.33;;;1.23;;
22388;SDS011;11362;48.102;11.620;2022-11-03T04:04:16;1.27;;;1.17;;
22388;SDS011;11362;48.102;11.620;2022-11-03T04:06:41;1.37;;;1.27;;
22388;SDS011;11362;48.102;11.620;2022-11-03T04:09:07;3.93;;;1.70;;
22388;SDS011;11362;48.102;11.620;2022-11-03T04:11:33;1.87;;;1.67;;
22388;SDS011;11362;48.102;11.620;2022-11-03T04:13:58;2.70;;;1.60;;
22388;SDS011;11362;48.102;11.620;2022-11-03T04:16:24;1.90;;;1.80;;
22388;SDS011;11362;48.102;11.620;2022-11-03T04:18:49;1.60;;;1.47;;
22388;SDS011;11362;48.102;11.620;2022-11-03T04:21:14;1.17;;;1.03;;
22388;SDS011;11362;48.102;11.620;2022-11-03T04:23:40;1.97;;;1.67;;
22388;SDS011;11362;48.102;11.620;2022-11-03T04:26:05;1.60;;;1.50;;
22388;SDS011;11362;48.102;11.620;2022-11-03T04:28:36;1.50;;;1.40;;
22388;SDS011;11362;48.102;11.620;2022-11-03T04:31:02;1.73;;;1.40;;
22388;SDS011;11362;48.102;11.620;2022-11-03T04:33:33;1.63;;;1.53;;
22388;SDS011;11362;48.102;11.620;2022-11-03T04:35:59;1.40;;;1.30;;
22388;SDS011;11362;48.102;11.620;2022-11-03T04:38:25;1.50;;;1.40;;
22388;SDS011;11362;48.102;11.620;2022-11-03T04:40:52;1.77;;;1.30;;
22388;SDS011;11362;48.102;11.620;2022-11-03T04:43:19;1.77;;;1.40;;
22388;SDS011;11362;48.102;11.620;2022-11-03T04:45:46;1.70;;;1.60;;
22388;SDS011;11362;48.102;11.620;2022-11-03T04:48:22;1.87;;;1.50;;
22388;SDS011;11362;48.102;11.620;2022-11-03T04:50:50;2.13;;;1.13;;
22388;SDS011;11362;48.102;11.620;2022-11-03T04:53:19;1.20;;;1.20;;
22388;SDS011;11362;48.102;11.620;2022-11-03T04:55:46;1.83;;;1.40;;
22388;SDS011;11362;48.102;11.620;2022-11-03T05:00:48;1.33;;;1.23;;
22388;SDS011;11362;48.102;11.620;2022-11-03T05:03:34;1.17;;;1.10;;
22388;SDS011;11362;48.102;11.620;2022-11-03T05:06:12;1.23;;;1.23;;
22388;SDS011;11362;48.102;11.620;2022-11-03T05:08:39;1.47;;;1.20;;
22388;SDS011;11362;48.102;11.620;2022-11-03T05:14:01;1.30;;;1.20;;
22388;SDS011;11362;48.102;11.620;2022-11-03T05:16:28;1.13;;;1.10;;
22388;SDS011;11362;48.102;11.620;2022-11-03T05:18:55;2.37;;;1.30;;
22388;SDS011;11362;48.102;11.620;2022-11-03T05:21:21;1.23;;;1.13;;
22388;SDS011;11362;48.102;11.620;2022-11-03T05:23:49;1.40;;;1.30;;
22388;SDS011;11362;48.102;11.620;2022-11-03T05:26:18;1.30;;;1.20;;
22388;SDS011;11362;48.102;11.620;2022-11-03T05:28:50;1.90;;;1.30;;
22388;SDS011;11362;48.102;11.620;2022-11-03T05:31:22;1.23;;;1.23;;
22388;SDS011;11362;48.102;11.620;2022-11-03T05:33:50;1.40;;;1.30;;
22388;SDS011;11362;48.102;11.620;2022-11-03T05:36:21;1.63;;;1.40;;
22388;SDS011;11362;48.102;11.620;2022-11-03T05:38:48;1.30;;;1.20;;
22388;SDS011;11362;48.102;11.620;2022-11-03T05:41:15;1.17;;;1.10;;
22388;SDS011;11362;48.102;11.620;2022-11-03T05:43:49;1.80;;;1.30;;
22388;SDS011;11362;48.102;11.620;2022-11-03T05:46:19;1.63;;;1.30;;
22388;SDS011;11362;48.102;11.620;2022-11-03T05:48:44;1.40;;;1.30;;
22388;SDS011;11362;48.102;11.620;2022-11-03T05:51:30;1.27;;;1.27;;
22388;SDS011;11362;48.102;11.620;2022-11-03T05:53:58;1.53;;;1.20;;
22388;SDS011;11362;48.102;11.620;2022-11-03T05:56:27;1.77;;;1.10;;
22388;SDS011;11362;48.102;11.620;2022-11-03T05:58:53;1.23;;;1.23;;
22388;SDS011;11362;48.102;11.620;2022-11-03T06:01:33;1.10;;;0.97;;
22388;SDS011;11362;48.102;11.620;2022-11-03T06:07:02;1.17;;;1.10;;
22388;SDS011;11362;48.102;11.620;2022-11-03T06:09:30;1.00;;;1.00;;
22388;SDS011;11362;48.102;11.620;2022-11-03T06:11:57;1.00;;;1.00;;
22388;SDS011;11362;48.102;11.620;2022-11-03T06:14:25;0.90;;;0.90;;
22388;SDS011;11362;48.102;11.620;2022-11-03T06:16:58;0.93;;;0.90;;
22388;SDS011;11362;48.102;11.620;2022-11-03T06:19:34;1.23;;;1.20;;
22388;SDS011;11362;48.102;11.620;2022-11-03T06:22:10;1.40;;;1.40;;
22388;SDS011;11362;48.102;11.620;2022-11-03T06:24:42;2.87;;;1.40;;
22388;SDS011;11362;48.102;11.620;2022-11-03T06:27:23;1.70;;;1.10;;
22388;SDS011;11362;48.102;11.620;2022-11-03T06:29:56;1.50;;;1.40;;
22388;SDS011;11362;48.102;11.620;2022-11-03T06:32:40;11.93;;;1.83;;
22388;SDS011;11362;48.102;11.620;2022-11-03T06:35:07;4.77;;;1.30;;
22388;SDS011;11362;48.102;11.620;2022-11-03T06:37:35;2.17;;;1.30;;
22388;SDS011;11362;48.102;11.620;2022-11-03T06:42:36;6.53;;;1.23;;
22388;SDS011;11362;48.102;11.620;2022-11-03T06:45:11;4.00;;;1.30;;
22388;SDS011;11362;48.102;11.620;2022-11-03T06:47:37;2.27;;;1.40;;
22388;SDS011;11362;48.102;11.620;2022-11-03T06:50:06;6.83;;;2.03;;
22388;SDS011;11362;48.102;11.620;2022-11-03T06:52:46;3.67;;;1.87;;
22388;SDS011;11362;48.102;11.620;2022-11-03T06:55:21;8.97;;;1.90;;
22388;SDS011;11362;48.102;11.620;2022-11-03T06:57:49;10.67;;;1.50;;
22388;SDS011;11362;48.102;11.620;2022-11-03T07:05:33;6.20;;;1.70;;
22388;SDS011;11362;48.102;11.620;2022-11-03T07:07:59;9.90;;;2.23;;
22388;SDS011;11362;48.102;11.620;2022-11-03T07:10:31;4.93;;;1.70;;
22388;SDS011;11362;48.102;11.620;2022-11-03T07:13:05;5.60;;;1.27;;
22388;SDS011;11362;48.102;11.620;2022-11-03T07:15:36;5.83;;;1.60;;
22388;SDS011;11362;48.102;11.620;2022-11-03T07:18:02;4.07;;;1.50;;
22388;SDS011;11362;48.102;11.620;2022-11-03T07:20:43;3.47;;;1.43;;
22388;SDS011;11362;48.102;11.620;2022-11-03T07:23:09;3.63;;;1.00;;
22388;SDS011;11362;48.102;11.620;2022-11-03T07:25:39;2.10;;;1.43;;
22388;SDS011;11362;48.102;11.620;2022-11-03T07:28:04;8.67;;;1.60;;
22388;SDS011;11362;48.102;11.620;2022-11-03T07:30:31;3.23;;;1.43;;
22388;SDS011;11362;48.102;11.620;2022-11-03T07:33:09;3.13;;;1.40;;
22388;SDS011;11362;48.102;11.620;2022-11-03T07:35:40;1.30;;;1.10;;
22388;SDS011;11362;48.102;11.620;2022-11-03T07:38:10;3.47;;;1.50;;
22388;SDS011;11362;48.102;11.620;2022-11-03T07:40:38;4.47;;;1.40;;
22388;SDS011;11362;48.102;11.620;2022-11-03T07:43:09;1.60;;;1.10;;
22388;SDS011;11362;48.102;11.620;2022-11-03T07:45:39;7.23;;;1.50;;
22388;SDS011;11362;48.102;11.620;2022-11-03T07:50:58;1.80;;;1.37;;
22388;SDS011;11362;48.102;11.620;2022-11-03T07:53:38;2.20;;;1.10;;
22388;SDS011;11362;48.102;11.620;2022-11-03T07:56:12;5.03;;;1.60;;
22388;SDS011;11362;48.102;11.620;2022-11-03T07:58:46;3.13;;;1.00;;
22388;SDS011;11362;48.102;11.620;2022-11-03T08:01:29;2.73;;;1.33;;
22388;SDS011;11362;48.102;11.620;2022-11-03T08:04:00;3.17;;;1.23;;
22388;SDS011;11362;48.102;11.620;2022-11-03T08:06:34;1.17;;;1.07;;
22388;SDS011;11362;48.102;11.620;2022-11-03T08:09:00;4.77;;;1.30;;
22388;SDS011;11362;48.102;11.620;2022-11-03T08:11:25;3.10;;;1.40;;
22388;SDS011;11362;48.102;11.620;2022-11-03T08:13:50;4.47;;;1.20;;
22388;SDS011;11362;48.102;11.620;2022-11-03T08:16:16;1.63;;;1.30;;
22388;SDS011;11362;48.102;11.620;2022-11-03T08:18:42;1.03;;;1.00;;
22388;SDS011;11362;48.102;11.620;2022-11-03T08:21:07;1.30;;;1.20;;
22388;SDS011;11362;48.102;11.620;2022-11-03T08:23:32;1.50;;;1.20;;
22388;SDS011;11362;48.102;11.620;2022-11-03T08:25:57;3.30;;;1.40;;
22388;SDS011;11362;48.102;11.620;2022-11-03T08:28:23;6.47;;;2.63;;
22388;SDS011;11362;48.102;11.620;2022-11-03T08:30:48;3.17;;;1.90;;
22388;SDS011;11362;48.102;11.620;2022-11-03T08:33:13;2.83;;;2.33;;
22388;SDS011;11362;48.102;11.620;2022-11-03T08:35:39;2.27;;;2.00;;
22388;SDS011;11362;48.102;11.620;2022-11-03T08:38:04;5.87;;;1.77;;
22388;SDS011;11362;48.102;11.620;2022-11-03T08:40:29;2.73;;;2.03;;
22388;SDS011;11362;48.102;11.620;2022-11-03T08:42:55;3.97;;;2.00;;
22388;SDS011;11362;48.102;11.620;2022-11-03T08:45:20;5.03;;;2.03;;
22388;SDS011;11362;48.102;11.620;2022-11-03T08:47:45;4.87;;;1.87;;
22388;SDS011;11362;48.102;11.620;2022-11-03T08:50:10;4.87;;;2.00;;
22388;SDS011;11362;48.102;11.620;2022-11-03T08:52:36;3.53;;;1.77;;
22388;SDS011;11362;48.102;11.620;2022-11-03T08:55:01;2.33;;;1.97;;
22388;SDS011;11362;48.102;11.620;2022-11-03T08:57:26;2.80;;;1.60;;
22388;SDS011;11362;48.102;11.620;2022-11-03T08:59:52;2.33;;;1.80;;
22388;SDS011;11362;48.102;11.620;2022-11-03T09:02:17;2.07;;;1.77;;
22388;SDS011;11362;48.102;11.620;2022-11-03T09:04:43;4.97;;;1.80;;
22388;SDS011;11362;48.102;11.620;2022-11-03T09:07:08;2.37;;;1.73;;
22388;SDS011;11362;48.102;11.620;2022-11-03T09:09:33;5.20;;;1.60;;
22388;SDS011;11362;48.102;11.620;2022-11-03T09:11:59;5.13;;;1.83;;
22388;SDS011;11362;48.102;11.620;2022-11-03T09:14:24;2.50;;;2.00;;
22388;SDS011;11362;48.102;11.620;2022-11-03T09:16:49;2.60;;;1.87;;
22388;SDS011;11362;48.102;11.620;2022-11-03T09:19:15;4.53;;;1.50;;
22388;SDS011;11362;48.102;11.620;2022-11-03T09:21:40;1.97;;;1.70;;
22388;SDS011;11362;48.102;11.620;2022-11-03T09:24:05;1.93;;;1.47;;
22388;SDS011;11362;48.102;11.620;2022-11-03T09:26:31;2.57;;;1.40;;
22388;SDS011;11362;48.102;11.620;2022-11-03T09:28:56;1.77;;;1.67;;
22388;SDS011;11362;48.102;11.620;2022-11-03T09:31:21;1.73;;;1.60;;
22388;SDS011;11362;48.102;11.620;2022-11-03T09:33:47;1.60;;;1.43;;
22388;SDS011;11362;48.102;11.620;2022-11-03T09:36:12;2.37;;;1.37;;
22388;SDS011;11362;48.102;11.620;2022-11-03T09:38:37;2.23;;;1.50;;
22388;SDS011;11362;48.102;11.620;2022-11-03T09:41:03;2.57;;;1.73;;
22388;SDS011;11362;48.102;11.620;2022-11-03T09:43:30;2.80;;;1.30;;
22388;SDS011;11362;48.102;11.620;2022-11-03T09:45:56;2.57;;;1.80;;
22388;SDS011;11362;48.102;11.620;2022-11-03T09:48:22;1.40;;;1.30;;
22388;SDS011;11362;48.102;11.620;2022-11-03T09:50:48;1.30;;;1.30;;
22388;SDS011;11362;48.102;11.620;2022-11-03T09:53:16;3.47;;;1.50;;
22388;SDS011;11362;48.102;11.620;2022-11-03T09:55:42;3.07;;;1.47;;
22388;SDS011;11362;48.102;11.620;2022-11-03T09:58:09;3.03;;;1.67;;
22388;SDS011;11362;48.102;11.620;2022-11-03T10:00:38;1.60;;;1.37;;
22388;SDS011;11362;48.102;11.620;2022-11-03T10:03:03;1.83;;;1.40;;
22388;SDS011;11362;48.102;11.620;2022-11-03T10:05:29;2.90;;;1.20;;
22388;SDS011;11362;48.102;11.620;2022-11-03T10:08:01;1.40;;;1.30;;
22388;SDS011;11362;48.102;11.620;2022-11-03T10:10:29;1.40;;;1.30;;
22388;SDS011;11362;48.102;11.620;2022-11-03T10:12:56;3.13;;;1.40;;
22388;SDS011;11362;48.102;11.620;2022-11-03T10:15:23;1.30;;;1.20;;
22388;SDS011;11362;48.102;11.620;2022-11-03T10:17:49;2.30;;;1.57;;
22388;SDS011;11362;48.102;11.620;2022-11-03T10:20:16;1.83;;;1.50;;
22388;SDS011;11362;48.102;11.620;2022-11-03T10:22:43;1.30;;;1.20;;
22388;SDS011;11362;48.102;11.620;2022-11-03T10:25:33;1.57;;;1.20;;
22388;SDS011;11362;48.102;11.620;2022-11-03T10:35:59;2.33;;;1.60;;
22388;SDS011;11362;48.102;11.620;2022-11-03T10:40:53;3.03;;;1.43;;
22388;SDS011;11362;48.102;11.620;2022-11-03T10:43:19;1.73;;;1.40;;
22388;SDS011;11362;48.102;11.620;2022-11-03T10:45:44;2.83;;;1.87;;
22388;SDS011;11362;48.102;11.620;2022-11-03T10:48:10;1.70;;;1.30;;
22388;SDS011;11362;48.102;11.620;2022-11-03T10:50:36;2.40;;;1.10;;
22388;SDS011;11362;48.102;11.620;2022-11-03T10:53:03;2.70;;;1.50;;
22388;SDS011;11362;48.102;11.620;2022-11-03T10:55:29;1.60;;;1.37;;
22388;SDS011;11362;48.102;11.620;2022-11-03T10:57:55;2.20;;;1.33;;
22388;SDS011;11362;48.102;11.620;2022-11-03T11:00:22;2.47;;;1.27;;
22388;SDS011;11362;48.102;11.620;2022-11-03T11:02:48;1.40;;;1.30;;
22388;SDS011;11362;48.102;11.620;2022-11-03T11:05:16;1.80;;;1.40;;
22388;SDS011;11362;48.102;11.620;2022-11-03T11:07:44;1.40;;;1.23;;
22388;SDS011;11362;48.102;11.620;2022-11-03T11:10:16;1.57;;;1.20;;
22388;SDS011;11362;48.102;11.620;2022-11-03T11:15:41;1.93;;;1.47;;
22388;SDS011;11362;48.102;11.620;2022-11-03T11:18:09;3.30;;;1.20;;
22388;SDS011;11362;48.102;11.620;2022-11-03T11:31:00;2.73;;;1.60;;
22388;SDS011;11362;48.102;11.620;2022-11-03T11:33:26;2.73;;;1.23;;
22388;SDS011;11362;48.102;11.620;2022-11-03T11:41:15;2.20;;;1.30;;
22388;SDS011;11362;48.102;11.620;2022-11-03T11:43:40;1.30;;;1.20;;
22388;SDS011;11362;48.102;11.620;2022-11-03T11:46:31;1.73;;;1.50;;
22388;SDS011;11362;48.102;11.620;2022-11-03T11:51:31;1.87;;;1.43;;
22388;SDS011;11362;48.102;11.620;2022-11-03T11:53:57;1.23;;;1.10;;
22388;SDS011;11362;48.102;11.620;2022-11-03T11:56:23;2.20;;;1.53;;
22388;SDS011;11362;48.102;11.620;2022-11-03T11:58:49;2.03;;;1.47;;
22388;SDS011;11362;48.102;11.620;2022-11-03T12:03:51;2.03;;;1.37;;
22388;SDS011;11362;48.102;11.620;2022-11-03T12:06:32;0.90;;;0.90;;
22388;SDS011;11362;48.102;11.620;2022-11-03T12:11:39;2.63;;;1.10;;
22388;SDS011;11362;48.102;11.620;2022-11-03T12:16:52;2.80;;;1.40;;
22388;SDS011;11362;48.102;11.620;2022-11-03T12:24:51;1.30;;;1.20;;
22388;SDS011;11362;48.102;11.620;2022-11-03T12:29:49;1.03;;;0.93;;
22388;SDS011;11362;48.102;11.620;2022-11-03T12:32:15;2.50;;;1.57;;
22388;SDS011;11362;48.102;11.620;2022-11-03T12:34:41;1.20;;;1.10;;
22388;SDS011;11362;48.102;11.620;2022-11-03T12:37:06;1.80;;;1.40;;
22388;SDS011;11362;48.102;11.620;2022-11-03T12:39:32;5.23;;;1.60;;
22388;SDS011;11362;48.102;11.620;2022-11-03T12:41:58;5.67;;;1.60;;
22388;SDS011;11362;48.102;11.620;2022-11-03T12:44:24;3.40;;;1.53;;
22388;SDS011;11362;48.102;11.620;2022-11-03T12:46:49;5.27;;;2.03;;
22388;SDS011;11362;48.102;11.620;2022-11-03T12:49:14;5.70;;;2.23;;
22388;SDS011;11362;48.102;11.620;2022-11-03T12:51:39;5.10;;;1.80;;
22388;SDS011;11362;48.102;11.620;2022-11-03T12:54:05;3.07;;;1.70;;
22388;SDS011;11362;48.102;11.620;2022-11-03T12:56:30;6.27;;;1.90;;
22388;SDS011;11362;48.102;11.620;2022-11-03T12:58:55;2.07;;;1.40;;
22388;SDS011;11362;48.102;11.620;2022-11-03T13:01:20;4.03;;;1.60;;
22388;SDS011;11362;48.102;11.620;2022-11-03T13:03:46;2.07;;;1.40;;
22388;SDS011;11362;48.102;11.620;2022-11-03T13:06:11;2.03;;;1.37;;
22388;SDS011;11362;48.102;11.620;2022-11-03T13:08:37;2.53;;;1.47;;
22388;SDS011;11362;48.102;11.620;2022-11-03T13:11:02;1.60;;;1.37;;
22388;SDS011;11362;48.102;11.620;2022-11-03T13:13:27;1.67;;;1.57;;
22388;SDS011;11362;48.102;11.620;2022-11-03T13:15:53;2.63;;;1.63;;
22388;SDS011;11362;48.102;11.620;2022-11-03T13:18:19;5.50;;;1.93;;
22388;SDS011;11362;48.102;11.620;2022-11-03T13:20:44;2.13;;;1.60;;
22388;SDS011;11362;48.102;11.620;2022-11-03T13:23:10;4.17;;;1.40;;
22388;SDS011;11362;48.102;11.620;2022-11-03T13:25:35;3.67;;;1.43;;
22388;SDS011;11362;48.102;11.620;2022-11-03T13:28:01;2.10;;;1.47;;
22388;SDS011;11362;48.102;11.620;2022-11-03T13:30:26;3.43;;;1.73;;
22388;SDS011;11362;48.102;11.620;2022-11-03T13:32:51;2.20;;;1.47;;
22388;SDS011;11362;48.102;11.620;2022-11-03T13:35:17;1.90;;;1.43;;
22388;SDS011;11362;48.102;11.620;2022-11-03T13:37:43;2.73;;;1.37;;
22388;SDS011;11362;48.102;11.620;2022-11-03T13:40:09;2.97;;;1.53;;
22388;SDS011;11362;48.102;11.620;2022-11-03T13:42:36;4.53;;;1.60;;
22388;SDS011;11362;48.102;11.620;2022-11-03T13:45:01;3.50;;;1.57;;
22388;SDS011;11362;48.102;11.620;2022-11-03T13:47:27;3.03;;;1.90;;
22388;SDS011;11362;48.102;11.620;2022-11-03T13:49:52;2.80;;;1.30;;
22388;SDS011;11362;48.102;11.620;2022-11-03T13:52:18;1.57;;;1.43;;
22388;SDS011;11362;48.102;11.620;2022-11-03T13:54:43;3.57;;;2.10;;
22388;SDS011;11362;48.102;11.620;2022-11-03T13:57:09;1.73;;;1.40;;
22388;SDS011;11362;48.102;11.620;2022-11-03T13:59:34;3.70;;;1.60;;
22388;SDS011;11362;48.102;11.620;2022-11-03T14:02:00;1.40;;;1.30;;
22388;SDS011;11362;48.102;11.620;2022-11-03T14:04:26;1.60;;;1.50;;
22388;SDS011;11362;48.102;11.620;2022-11-03T14:06:51;2.63;;;1.60;;
22388;SDS011;11362;48.102;11.620;2022-11-03T14:09:16;3.13;;;1.20;;
22388;SDS011;11362;48.102;11.620;2022-11-03T14:11:42;2.17;;;1.33;;
22388;SDS011;11362;48.102;11.620;2022-11-03T14:14:07;3.60;;;1.40;;
22388;SDS011;11362;48.102;11.620;2022-11-03T14:16:32;2.23;;;1.30;;
22388;SDS011;11362;48.102;11.620;2022-11-03T14:18:57;1.60;;;1.30;;
22388;SDS011;11362;48.102;11.620;2022-11-03T14:21:23;3.70;;;1.30;;
22388;SDS011;11362;48.102;11.620;2022-11-03T14:23:48;1.33;;;1.23;;
22388;SDS011;11362;48.102;11.620;2022-11-03T14:26:13;1.73;;;1.30;;
22388;SDS011;11362;48.102;11.620;2022-11-03T14:28:38;1.50;;;1.40;;
22388;SDS011;11362;48.102;11.620;2022-11-03T14:31:04;1.97;;;1.73;;
22388;SDS011;11362;48.102;11.620;2022-11-03T14:33:29;1.67;;;1.50;;
22388;SDS011;11362;48.102;11.620;2022-11-03T14:35:54;1.47;;;1.10;;
22388;SDS011;11362;48.102;11.620;2022-11-03T14:38:20;2.07;;;1.50;;
22388;SDS011;11362;48.102;11.620;2022-11-03T14:40:45;1.67;;;1.50;;
22388;SDS011;11362;48.102;11.620;2022-11-03T14:43:10;3.07;;;1.47;;
22388;SDS011;11362;48.102;11.620;2022-11-03T14:45:35;2.33;;;1.60;;
22388;SDS011;11362;48.102;11.620;2022-11-03T14:48:01;1.10;;;1.00;;
22388;SDS011;11362;48.102;11.620;2022-11-03T14:50:26;2.80;;;1.13;;
22388;SDS011;11362;48.102;11.620;2022-11-03T14:52:51;1.13;;;1.00;;
22388;SDS011;11362;48.102;11.620;2022-11-03T14:55:17;2.00;;;1.70;;
22388;SDS011;11362;48.102;11.620;2022-11-03T14:57:42;1.20;;;1.20;;
22388;SDS011;11362;48.102;11.620;2022-11-03T15:00:07;1.53;;;1.10;;
22388;SDS011;11362;48.102;11.620;2022-11-03T15:02:33;2.20;;;1.60;;
22388;SDS011;11362;48.102;11.620;2022-11-03T15:04:58;1.40;;;1.30;;
22388;SDS011;11362;48.102;11.620;2022-11-03T15:07:23;1.77;;;1.40;;
22388;SDS011;11362;48.102;11.620;2022-11-03T15:09:49;1.37;;;1.23;;
22388;SDS011;11362;48.102;11.620;2022-11-03T15:12:14;1.50;;;1.40;;
22388;SDS011;11362;48.102;11.620;2022-11-03T15:14:39;1.37;;;1.30;;
22388;SDS011;11362;48.102;11.620;2022-11-03T15:17:04;2.83;;;1.37;;
22388;SDS011;11362;48.102;11.620;2022-11-03T15:19:30;1.47;;;1.23;;
22388;SDS011;11362;48.102;11.620;2022-11-03T15:21:55;1.23;;;1.13;;
22388;SDS011;11362;48.102;11.620;2022-11-03T15:24:20;1.27;;;1.27;;
22388;SDS011;11362;48.102;11.620;2022-11-03T15:26:46;1.30;;;1.13;;
22388;SDS011;11362;48.102;11.620;2022-11-03T15:29:11;1.83;;;1.50;;
22388;SDS011;11362;48.102;11.620;2022-11-03T15:31:36;1.50;;;1.40;;
22388;SDS011;11362;48.102;11.620;2022-11-03T15:34:01;1.60;;;1.13;;
22388;SDS011;11362;48.102;11.620;2022-11-03T15:36:27;1.70;;;1.60;;
22388;SDS011;11362;48.102;11.620;2022-11-03T15:38:52;1.40;;;1.30;;
22388;SDS011;11362;48.102;11.620;2022-11-03T15:41:17;1.30;;;1.20;;
22388;SDS011;11362;48.102;11.620;2022-11-03T15:43:44;1.10;;;1.10;;
22388;SDS011;11362;48.102;11.620;2022-11-03T15:46:16;1.70;;;1.47;;
22388;SDS011;11362;48.102;11.620;2022-11-03T15:48:43;2.03;;;1.50;;
22388;SDS011;11362;48.102;11.620;2022-11-03T15:51:09;2.10;;;1.67;;
22388;SDS011;11362;48.102;11.620;2022-11-03T15:53:34;1.30;;;1.20;;
22388;SDS011;11362;48.102;11.620;2022-11-03T15:56:00;1.60;;;1.20;;
22388;SDS011;11362;48.102;11.620;2022-11-03T15:58:25;1.43;;;1.33;;
22388;SDS011;11362;48.102;11.620;2022-11-03T16:00:51;1.40;;;1.30;;
22388;SDS011;11362;48.102;11.620;2022-11-03T16:03:16;1.33;;;1.23;;
22388;SDS011;11362;48.102;11.620;2022-11-03T16:05:41;1.37;;;1.23;;
22388;SDS011;11362;48.102;11.620;2022-11-03T16:08:06;1.90;;;1.27;;